createdAt,value
2022-11-26T00:02:39.387Z,5.40
2022-11-26T00:05:29.180Z,5.50
2022-11-26T00:08:18.475Z,5.50
2022-11-26T00:11:06.712Z,5.70
2022-11-26T00:13:56.117Z,5.40
2022-11-26T00:16:44.552Z,5.40
2022-11-26T00:19:32.040Z,5.40
2022-11-26T00:22:26.789Z,5.10
2022-11-26T00:25:19.036Z,5.40
2022-11-26T00:28:16.519Z,5.80
2022-11-26T00:31:06.657Z,4.30
2022-11-26T00:33:54.889Z,5.30
2022-11-26T00:36:44.104Z,5.30
2022-11-26T00:39:31.234Z,5.20
2022-11-26T00:42:19.171Z,5.20
2022-11-26T00:45:12.368Z,5.20
2022-11-26T00:48:01.874Z,5.20
2022-11-26T00:50:53.453Z,5.20
2022-11-26T00:53:40.562Z,5.00
2022-11-26T00:56:28.082Z,5.20
2022-11-26T00:59:16.824Z,5.20
2022-11-26T01:02:04.570Z,5.20
2022-11-26T01:04:53.519Z,5.20
2022-11-26T01:07:42.206Z,5.30
2022-11-26T01:10:32.839Z,5.30
2022-11-26T01:13:20.553Z,5.30
2022-11-26T01:16:13.646Z,5.20
2022-11-26T01:19:02.349Z,5.20
2022-11-26T01:21:51.676Z,4.90
2022-11-26T01:24:40.091Z,5.10
2022-11-26T01:27:28.194Z,5.20
2022-11-26T01:30:19.715Z,5.10
2022-11-26T01:33:07.762Z,5.10
2022-11-26T01:35:55.571Z,5.10
2022-11-26T01:38:44.947Z,5.10
2022-11-26T01:41:45.927Z,5.10
2022-11-26T01:44:34.476Z,5.10
2022-11-26T01:47:24.113Z,5.10
2022-11-26T01:50:42.066Z,6.30
2022-11-26T01:53:34.384Z,4.80
2022-11-26T01:56:27.399Z,5.00
2022-11-26T01:59:18.868Z,4.90
2022-11-26T02:02:07.499Z,5.50
2022-11-26T02:04:58.257Z,4.80
2022-11-26T02:07:47.302Z,4.70
2022-11-26T02:10:36.188Z,4.70
2022-11-26T02:13:25.824Z,4.80
2022-11-26T02:16:17.899Z,4.80
2022-11-26T02:19:17.268Z,4.80
2022-11-26T02:22:10.660Z,4.70
2022-11-26T02:25:03.943Z,4.70
2022-11-26T02:28:09.186Z,4.80
2022-11-26T02:31:02.903Z,4.80
2022-11-26T02:33:53.450Z,4.70
2022-11-26T02:36:43.442Z,4.80
2022-11-26T02:39:32.056Z,4.70
2022-11-26T02:42:27.836Z,4.70
2022-11-26T02:45:16.538Z,4.50
2022-11-26T02:48:08.070Z,4.70
2022-11-26T02:50:57.324Z,4.50
2022-11-26T02:53:47.335Z,4.70
2022-11-26T02:56:34.964Z,4.70
2022-11-26T02:59:26.163Z,4.70
2022-11-26T03:02:17.285Z,4.60
2022-11-26T03:05:07.674Z,5.70
2022-11-26T03:07:56.187Z,4.60
2022-11-26T03:10:43.333Z,4.60
2022-11-26T03:13:31.292Z,4.60
2022-11-26T03:16:19.403Z,4.50
2022-11-26T03:19:07.527Z,4.50
2022-11-26T03:21:58.353Z,3.70
2022-11-26T03:24:46.855Z,4.40
2022-11-26T03:27:34.602Z,4.40
2022-11-26T03:30:23.564Z,4.20
2022-11-26T03:33:12.420Z,4.50
2022-11-26T03:36:00.065Z,4.40
2022-11-26T03:38:49.496Z,4.50
2022-11-26T03:41:37.319Z,4.50
2022-11-26T03:44:24.562Z,4.50
2022-11-26T03:47:11.759Z,4.60
2022-11-26T03:49:59.503Z,4.50
2022-11-26T03:52:47.348Z,4.50
2022-11-26T03:55:36.323Z,4.50
2022-11-26T03:58:23.545Z,4.50
2022-11-26T04:01:11.483Z,4.50
2022-11-26T04:03:59.393Z,4.50
2022-11-26T04:06:47.138Z,4.60
2022-11-26T04:09:39.681Z,4.30
2022-11-26T04:12:29.011Z,4.60
2022-11-26T04:15:16.453Z,4.60
2022-11-26T04:18:04.207Z,4.60
2022-11-26T04:20:53.464Z,4.60
2022-11-26T04:23:41.513Z,4.60
2022-11-26T04:26:29.345Z,4.60
2022-11-26T04:29:18.566Z,4.60
2022-11-26T04:32:07.255Z,4.60
2022-11-26T04:34:54.845Z,4.50
2022-11-26T04:37:42.514Z,4.60
2022-11-26T04:40:30.488Z,4.60
2022-11-26T04:43:18.496Z,4.50
2022-11-26T04:46:08.298Z,4.50
2022-11-26T04:48:55.610Z,4.50
2022-11-26T04:51:43.466Z,4.50
2022-11-26T04:54:32.044Z,4.50
2022-11-26T04:57:19.889Z,4.40
2022-11-26T05:00:08.647Z,4.50
2022-11-26T05:02:57.244Z,4.50
2022-11-26T05:05:45.148Z,4.50
2022-11-26T05:08:33.884Z,4.50
2022-11-26T05:11:21.706Z,4.50
2022-11-26T05:14:09.534Z,4.60
2022-11-26T05:16:57.595Z,4.60
2022-11-26T05:19:47.190Z,4.60
2022-11-26T05:22:34.618Z,4.60
2022-11-26T05:25:22.063Z,4.50
2022-11-26T05:28:10.234Z,4.50
2022-11-26T05:31:01.391Z,4.50
2022-11-26T05:33:48.976Z,4.50
2022-11-26T05:36:38.493Z,4.60
2022-11-26T05:39:26.384Z,4.50
2022-11-26T05:42:15.542Z,4.60
2022-11-26T05:45:04.190Z,4.60
2022-11-26T05:47:52.001Z,4.50
2022-11-26T05:50:39.635Z,4.60
2022-11-26T05:53:30.509Z,4.50
2022-11-26T05:56:18.317Z,4.50
2022-11-26T05:59:07.594Z,4.50
2022-11-26T06:01:55.662Z,4.00
2022-11-26T06:04:43.319Z,3.00
2022-11-26T06:07:31.575Z,4.40
2022-11-26T06:10:24.046Z,4.40
2022-11-26T06:13:14.661Z,4.40
2022-11-26T06:16:02.586Z,4.20
2022-11-26T06:18:52.255Z,4.40
2022-11-26T06:21:41.611Z,4.90
2022-11-26T06:24:33.043Z,4.40
2022-11-26T06:27:25.202Z,4.40
2022-11-26T06:30:13.357Z,4.20
2022-11-26T06:33:01.831Z,4.30
2022-11-26T06:35:49.553Z,4.30
2022-11-26T06:38:38.187Z,4.40
2022-11-26T06:41:26.412Z,4.90
2022-11-26T06:44:15.886Z,4.40
2022-11-26T06:47:03.583Z,4.30
2022-11-26T06:49:51.265Z,4.20
2022-11-26T06:52:39.589Z,4.10
2022-11-26T06:55:27.578Z,4.10
2022-11-26T06:58:15.999Z,4.00
2022-11-26T07:01:10.802Z,4.00
2022-11-26T07:03:59.359Z,4.00
2022-11-26T07:06:47.535Z,4.00
2022-11-26T07:09:35.179Z,4.10
2022-11-26T07:12:22.563Z,4.10
2022-11-26T07:15:11.509Z,4.10
2022-11-26T07:18:01.197Z,5.60
2022-11-26T07:20:49.178Z,4.10
2022-11-26T07:23:37.552Z,4.10
2022-11-26T07:26:26.178Z,4.10
2022-11-26T07:29:13.506Z,4.10
2022-11-26T07:32:01.453Z,4.10
2022-11-26T07:34:50.643Z,4.00
2022-11-26T07:37:38.702Z,4.00
2022-11-26T07:40:26.389Z,4.10
2022-11-26T07:43:13.791Z,4.10
2022-11-26T07:46:04.353Z,4.10
2022-11-26T07:48:53.174Z,4.10
2022-11-26T07:51:43.465Z,4.10
2022-11-26T07:54:31.092Z,4.20
2022-11-26T07:57:22.005Z,4.20
2022-11-26T08:00:10.195Z,4.30
2022-11-26T08:03:03.822Z,4.40
2022-11-26T08:05:51.797Z,5.10
2022-11-26T08:08:41.543Z,4.40
2022-11-26T08:11:30.371Z,4.50
2022-11-26T08:14:17.869Z,4.60
2022-11-26T08:17:05.518Z,4.60
2022-11-26T08:19:53.328Z,5.30
2022-11-26T08:22:41.313Z,4.80
2022-11-26T08:25:31.538Z,4.90
2022-11-26T08:28:19.607Z,4.90
2022-11-26T08:31:09.660Z,5.10
2022-11-26T08:33:58.188Z,5.20
2022-11-26T08:36:46.456Z,5.30
2022-11-26T08:39:34.533Z,5.40
2022-11-26T08:42:23.533Z,5.50
2022-11-26T08:45:11.885Z,5.60
2022-11-26T08:48:01.134Z,5.70
2022-11-26T08:50:48.946Z,5.80
2022-11-26T08:53:37.128Z,6.00
2022-11-26T08:56:25.456Z,6.10
2022-11-26T08:59:14.880Z,6.30
2022-11-26T09:02:02.909Z,5.30
2022-11-26T09:04:50.178Z,6.30
2022-11-26T09:07:38.178Z,6.40
2022-11-26T09:10:26.200Z,6.40
2022-11-26T09:13:17.228Z,6.60
2022-11-26T09:16:09.274Z,6.60
2022-11-26T09:18:57.005Z,6.70
2022-11-26T09:21:45.492Z,6.70
2022-11-26T09:24:35.989Z,6.80
2022-11-26T09:27:23.962Z,6.80
2022-11-26T09:30:12.935Z,6.90
2022-11-26T09:33:04.080Z,6.90
2022-11-26T09:35:51.769Z,7.40
2022-11-26T09:38:39.977Z,6.90
2022-11-26T09:41:36.386Z,7.00
2022-11-26T09:44:27.918Z,7.00
2022-11-26T09:47:18.160Z,7.10
2022-11-26T09:50:17.707Z,7.10
2022-11-26T09:53:12.788Z,7.20
2022-11-26T09:56:01.952Z,7.30
2022-11-26T09:58:53.023Z,7.30
2022-11-26T10:01:41.922Z,7.00
2022-11-26T10:04:33.172Z,7.40
2022-11-26T10:07:31.586Z,7.40
2022-11-26T10:10:21.007Z,7.40
2022-11-26T10:13:19.984Z,7.40
2022-11-26T10:16:12.353Z,7.40
2022-11-26T10:19:03.678Z,7.40
2022-11-26T10:22:00.359Z,6.50
2022-11-26T10:24:51.573Z,7.40
2022-11-26T10:27:39.563Z,7.60
2022-11-26T10:30:28.634Z,7.60
2022-11-26T10:33:17.611Z,7.60
2022-11-26T10:36:07.519Z,7.60
2022-11-26T10:38:56.570Z,7.70
2022-11-26T10:41:45.917Z,7.70
2022-11-26T10:44:40.402Z,7.80
2022-11-26T10:47:28.864Z,8.00
2022-11-26T10:50:46.574Z,8.10
2022-11-26T10:53:33.466Z,8.40
2022-11-26T10:56:23.246Z,8.40
2022-11-26T10:59:19.666Z,8.10
2022-11-26T11:02:14.771Z,8.70
2022-11-26T11:05:04.687Z,8.80
2022-11-26T11:07:54.825Z,8.80
2022-11-26T11:10:54.220Z,9.00
2022-11-26T11:13:42.607Z,9.00
2022-11-26T11:16:33.495Z,8.50
2022-11-26T11:19:22.995Z,8.90
2022-11-26T11:22:18.867Z,9.00
2022-11-26T11:25:07.983Z,9.00
2022-11-26T11:28:00.926Z,9.10
2022-11-26T11:30:58.679Z,9.20
2022-11-26T11:33:47.409Z,9.10
2022-11-26T11:36:34.823Z,9.10
2022-11-26T11:39:28.454Z,9.00
2022-11-26T11:42:21.741Z,9.00
2022-11-26T11:45:20.266Z,9.00
2022-11-26T11:48:13.300Z,9.00
2022-11-26T11:51:09.440Z,9.00
2022-11-26T11:54:03.768Z,8.90
2022-11-26T11:56:56.173Z,9.10
2022-11-26T12:00:10.961Z,9.10
2022-11-26T12:03:31.369Z,9.20
2022-11-26T12:06:24.727Z,9.30
2022-11-26T12:09:18.431Z,9.40
2022-11-26T12:12:11.845Z,9.50
2022-11-26T12:15:01.606Z,9.60
2022-11-26T12:17:51.846Z,9.70
2022-11-26T12:20:41.577Z,9.70
2022-11-26T12:23:32.868Z,10.00
2022-11-26T12:26:23.506Z,10.10
2022-11-26T12:29:13.121Z,10.50
2022-11-26T12:32:04.518Z,10.30
2022-11-26T12:34:54.254Z,10.50
2022-11-26T12:37:45.215Z,10.10
2022-11-26T12:40:37.773Z,10.10
2022-11-26T12:43:28.915Z,10.00
2022-11-26T12:46:19.785Z,9.70
2022-11-26T12:49:11.369Z,9.90
2022-11-26T12:52:04.670Z,10.00
2022-11-26T12:54:56.709Z,10.20
2022-11-26T12:57:48.545Z,9.80
2022-11-26T13:00:36.884Z,9.80
2022-11-26T13:03:27.607Z,9.60
2022-11-26T13:06:22.325Z,9.60
2022-11-26T13:09:15.537Z,9.60
2022-11-26T13:12:07.712Z,9.50
2022-11-26T13:15:00.055Z,8.90
2022-11-26T13:17:50.002Z,9.60
2022-11-26T13:20:49.564Z,9.70
2022-11-26T13:23:43.415Z,9.80
2022-11-26T13:26:39.876Z,9.90
2022-11-26T13:29:37.014Z,9.90
2022-11-26T13:32:38.741Z,9.90
2022-11-26T13:35:37.303Z,9.90
2022-11-26T13:38:31.372Z,9.90
2022-11-26T13:41:27.017Z,10.00
2022-11-26T13:44:46.953Z,10.10
2022-11-26T13:47:38.443Z,10.30
2022-11-26T13:50:27.820Z,10.40
2022-11-26T13:53:25.048Z,10.60
2022-11-26T13:56:16.306Z,10.90
2022-11-26T13:59:06.362Z,11.20
2022-11-26T14:01:54.385Z,11.40
2022-11-26T14:04:53.924Z,11.50
2022-11-26T14:07:41.911Z,11.70
2022-11-26T14:10:42.623Z,11.60
2022-11-26T14:13:30.472Z,11.60
2022-11-26T14:16:18.315Z,11.60
2022-11-26T14:19:05.770Z,11.60
2022-11-26T14:22:03.796Z,11.40
2022-11-26T14:24:55.837Z,11.40
2022-11-26T14:27:49.246Z,11.30
2022-11-26T14:30:37.023Z,11.30
2022-11-26T14:33:27.359Z,11.00
2022-11-26T14:36:20.979Z,10.90
2022-11-26T14:39:13.010Z,10.60
2022-11-26T14:42:05.931Z,10.40
2022-11-26T14:45:04.294Z,10.10
2022-11-26T14:47:52.599Z,9.90
2022-11-26T14:50:40.794Z,9.60
2022-11-26T14:53:30.573Z,9.40
2022-11-26T14:56:20.481Z,9.30
2022-11-26T14:59:14.405Z,9.20
2022-11-26T15:02:02.282Z,9.00
2022-11-26T15:04:58.185Z,8.90
2022-11-26T15:07:46.637Z,8.50
2022-11-26T15:10:35.825Z,8.70
2022-11-26T15:13:26.691Z,8.60
2022-11-26T15:16:27.273Z,8.50
2022-11-26T15:19:15.997Z,8.40
2022-11-26T15:22:04.754Z,8.30
2022-11-26T15:24:53.064Z,8.20
2022-11-26T15:27:41.531Z,8.10
2022-11-26T15:30:31.739Z,8.00
2022-11-26T15:33:19.806Z,7.90
2022-11-26T15:36:12.781Z,7.80
2022-11-26T15:39:06.422Z,7.70
2022-11-26T15:41:54.691Z,7.60
2022-11-26T15:44:43.064Z,7.50
2022-11-26T15:47:32.187Z,7.50
2022-11-26T15:50:24.116Z,7.40
2022-11-26T15:53:16.374Z,7.30
2022-11-26T15:56:04.925Z,7.20
2022-11-26T15:58:54.308Z,7.10
2022-11-26T16:01:44.984Z,7.00
2022-11-26T16:04:39.944Z,7.00
2022-11-26T16:07:28.742Z,6.90
2022-11-26T16:10:23.448Z,6.90
2022-11-26T16:13:23.079Z,6.80
2022-11-26T16:16:14.795Z,6.80
2022-11-26T16:19:04.378Z,6.80
2022-11-26T16:21:54.249Z,6.70
2022-11-26T16:24:43.808Z,6.70
2022-11-26T16:27:32.109Z,6.60
2022-11-26T16:30:20.233Z,6.60
2022-11-26T16:33:07.824Z,6.50
2022-11-26T16:35:55.600Z,6.50
2022-11-26T16:38:45.092Z,6.50
2022-11-26T16:41:33.016Z,6.40
2022-11-26T16:44:20.713Z,6.30
2022-11-26T16:47:10.490Z,6.20
2022-11-26T16:49:57.864Z,6.30
2022-11-26T16:52:45.428Z,6.20
2022-11-26T16:55:34.955Z,6.20
2022-11-26T16:58:27.144Z,6.10
2022-11-26T17:01:14.318Z,6.10
2022-11-26T17:04:01.791Z,6.10
2022-11-26T17:06:49.145Z,6.00
2022-11-26T17:09:36.986Z,6.00
2022-11-26T17:12:26.658Z,5.90
2022-11-26T17:15:17.901Z,5.80
2022-11-26T17:18:08.500Z,5.80
2022-11-26T17:20:56.031Z,5.80
2022-11-26T17:23:43.967Z,5.70
2022-11-26T17:26:31.363Z,5.70
2022-11-26T17:29:20.643Z,5.70
2022-11-26T17:32:09.548Z,5.60
2022-11-26T17:34:56.923Z,5.60
2022-11-26T17:37:44.781Z,5.60
2022-11-26T17:40:32.720Z,5.60
2022-11-26T17:43:20.756Z,5.50
2022-11-26T17:46:13.865Z,5.50
2022-11-26T17:49:01.705Z,5.50
2022-11-26T17:51:49.786Z,5.50
2022-11-26T17:54:39.065Z,5.50
2022-11-26T17:57:28.315Z,5.40
2022-11-26T18:00:18.338Z,5.40
2022-11-26T18:03:09.767Z,5.40
2022-11-26T18:05:57.557Z,5.40
2022-11-26T18:08:45.733Z,5.30
2022-11-26T18:11:44.162Z,5.30
2022-11-26T18:14:41.669Z,5.30
2022-11-26T18:17:29.744Z,5.20
2022-11-26T18:20:19.076Z,5.20
2022-11-26T18:23:06.528Z,5.20
2022-11-26T18:25:54.485Z,5.10
2022-11-26T18:28:42.129Z,5.20
2022-11-26T18:31:29.424Z,5.20
2022-11-26T18:34:17.960Z,5.20
2022-11-26T18:37:07.323Z,5.20
2022-11-26T18:39:58.516Z,5.20
2022-11-26T18:42:45.802Z,5.20
2022-11-26T18:45:34.057Z,5.20
2022-11-26T18:48:21.455Z,5.20
2022-11-26T18:51:09.564Z,5.20
2022-11-26T18:53:58.627Z,5.20
2022-11-26T18:56:46.079Z,5.20
2022-11-26T18:59:33.794Z,5.30
2022-11-26T19:02:22.058Z,5.30
2022-11-26T19:05:10.104Z,5.30
2022-11-26T19:07:57.841Z,5.30
2022-11-26T19:10:57.277Z,5.30
2022-11-26T19:13:44.472Z,5.30
2022-11-26T19:16:31.943Z,5.30
2022-11-26T19:19:20.280Z,5.30
2022-11-26T19:22:07.895Z,5.30
2022-11-26T19:24:55.679Z,5.30
2022-11-26T19:27:45.230Z,5.40
2022-11-26T19:30:33.169Z,5.40
2022-11-26T19:33:22.281Z,5.50
2022-11-26T19:36:11.361Z,5.50
2022-11-26T19:38:59.398Z,5.50
2022-11-26T19:41:46.413Z,5.50
2022-11-26T19:44:36.731Z,5.60
2022-11-26T19:47:24.403Z,5.60
2022-11-26T19:50:11.659Z,5.70
2022-11-26T19:52:58.852Z,5.70
2022-11-26T19:55:46.316Z,5.70
2022-11-26T19:58:35.639Z,5.70
2022-11-26T20:01:25.998Z,5.70
2022-11-26T20:04:14.049Z,5.70
2022-11-26T20:07:02.168Z,5.70
2022-11-26T20:09:51.771Z,5.70
2022-11-26T20:12:39.429Z,5.70
2022-11-26T20:15:27.751Z,5.70
2022-11-26T20:18:16.446Z,5.80
2022-11-26T20:21:06.141Z,5.80
2022-11-26T20:23:54.698Z,5.80
2022-11-26T20:26:43.443Z,5.80
2022-11-26T20:29:31.653Z,5.70
2022-11-26T20:32:18.984Z,5.80
2022-11-26T20:35:08.301Z,5.70
2022-11-26T20:37:56.554Z,5.70
2022-11-26T20:40:44.772Z,5.80
2022-11-26T20:43:32.084Z,5.80
2022-11-26T20:46:19.602Z,5.80
2022-11-26T20:49:07.665Z,5.80
2022-11-26T20:51:57.837Z,5.80
2022-11-26T20:54:48.336Z,5.80
2022-11-26T20:57:41.775Z,5.80
2022-11-26T21:00:29.670Z,5.80
2022-11-26T21:03:17.369Z,5.80
2022-11-26T21:06:05.196Z,5.80
2022-11-26T21:08:53.729Z,5.80
2022-11-26T21:11:41.695Z,5.80
2022-11-26T21:14:29.590Z,5.80
2022-11-26T21:17:17.692Z,6.00
2022-11-26T21:20:06.287Z,5.80
2022-11-26T21:22:54.016Z,5.80
2022-11-26T21:25:43.916Z,5.70
2022-11-26T21:28:31.401Z,5.80
2022-11-26T21:31:19.994Z,5.80
2022-11-26T21:34:08.495Z,5.80
2022-11-26T21:36:55.909Z,5.80
2022-11-26T21:39:43.496Z,5.80
2022-11-26T21:42:34.752Z,5.80
2022-11-26T21:45:22.598Z,5.80
2022-11-26T21:48:10.340Z,5.80
2022-11-26T21:50:58.136Z,5.80
2022-11-26T21:53:46.455Z,5.80
2022-11-26T21:56:34.645Z,5.90
2022-11-26T21:59:23.640Z,5.80
2022-11-26T22:02:12.866Z,5.80
2022-11-26T22:05:00.628Z,5.90
2022-11-26T22:07:49.384Z,4.20
2022-11-26T22:10:38.227Z,5.90
2022-11-26T22:13:26.503Z,5.90
2022-11-26T22:16:15.450Z,5.90
2022-11-26T22:19:02.900Z,5.80
2022-11-26T22:21:51.595Z,5.90
2022-11-26T22:24:39.254Z,5.90
2022-11-26T22:27:26.925Z,5.90
2022-11-26T22:30:15.062Z,5.80
2022-11-26T22:33:05.453Z,5.80
2022-11-26T22:35:52.718Z,5.80
2022-11-26T22:38:40.926Z,5.80
2022-11-26T22:41:28.885Z,5.80
2022-11-26T22:44:17.324Z,5.80
2022-11-26T22:47:04.702Z,5.70
2022-11-26T22:49:53.368Z,5.60
2022-11-26T22:52:42.544Z,5.50
2022-11-26T22:55:30.657Z,5.40
2022-11-26T22:58:19.336Z,5.50
2022-11-26T23:01:07.836Z,5.40
2022-11-26T23:03:56.700Z,5.40
2022-11-26T23:06:45.612Z,5.40
2022-11-26T23:09:33.903Z,5.40
2022-11-26T23:12:22.906Z,5.40
2022-11-26T23:15:12.549Z,5.50
2022-11-26T23:18:00.036Z,5.50
2022-11-26T23:20:47.772Z,5.50
2022-11-26T23:23:37.431Z,5.40
2022-11-26T23:26:27.710Z,5.50
2022-11-26T23:29:15.708Z,5.50
2022-11-26T23:32:03.302Z,5.50
2022-11-26T23:34:52.577Z,5.50
2022-11-26T23:37:42.194Z,5.50
2022-11-26T23:40:31.204Z,5.40
2022-11-26T23:43:19.323Z,5.50
2022-11-26T23:46:08.588Z,5.40
2022-11-26T23:48:56.657Z,5.40
2022-11-26T23:51:44.508Z,5.30
2022-11-26T23:54:31.795Z,5.30
2022-11-26T23:57:22.954Z,5.30
